createdAt,value
2023-02-26T00:01:45.538Z,4.20
2023-02-26T00:04:15.599Z,4.20
2023-02-26T00:06:53.332Z,4.20
2023-02-26T00:09:25.268Z,4.20
2023-02-26T00:11:54.147Z,4.10
2023-02-26T00:14:23.333Z,4.10
2023-02-26T00:17:08.403Z,4.00
2023-02-26T00:19:39.041Z,4.00
2023-02-26T00:22:07.878Z,3.90
2023-02-26T00:24:36.300Z,3.90
2023-02-26T00:27:04.742Z,3.80
2023-02-26T00:29:33.667Z,3.80
2023-02-26T00:32:02.549Z,3.70
2023-02-26T00:34:31.420Z,3.70
2023-02-26T00:37:14.513Z,3.60
2023-02-26T00:39:52.696Z,3.60
2023-02-26T00:42:21.535Z,3.50
2023-02-26T00:44:50.630Z,3.40
2023-02-26T00:47:25.500Z,3.30
2023-02-26T00:50:05.798Z,3.20
2023-02-26T00:52:44.462Z,3.20
2023-02-26T00:55:12.840Z,3.20
2023-02-26T00:57:41.297Z,3.20
2023-02-26T01:00:10.617Z,3.10
2023-02-26T01:02:40.321Z,3.10
2023-02-26T01:05:10.634Z,3.00
2023-02-26T01:07:45.284Z,3.00
2023-02-26T01:10:14.922Z,2.90
2023-02-26T01:12:44.140Z,3.00
2023-02-26T01:15:13.403Z,3.10
2023-02-26T01:17:48.421Z,3.00
2023-02-26T01:20:23.694Z,3.10
2023-02-26T01:22:56.996Z,3.20
2023-02-26T01:25:29.984Z,3.20
2023-02-26T01:27:58.849Z,3.30
2023-02-26T01:30:27.973Z,3.30
2023-02-26T01:33:04.675Z,3.30
2023-02-26T01:35:44.994Z,3.30
2023-02-26T01:38:25.845Z,3.20
2023-02-26T01:41:20.292Z,3.20
2023-02-26T01:43:56.230Z,3.30
2023-02-26T01:46:31.657Z,3.30
2023-02-26T01:49:01.226Z,3.30
2023-02-26T01:51:51.121Z,3.30
2023-02-26T01:54:23.184Z,3.30
2023-02-26T01:56:57.767Z,3.30
2023-02-26T01:59:27.443Z,3.40
2023-02-26T02:01:59.382Z,3.50
2023-02-26T02:04:28.406Z,3.40
2023-02-26T02:06:57.164Z,3.50
2023-02-26T02:09:27.017Z,3.60
2023-02-26T02:12:08.379Z,3.60
2023-02-26T02:14:47.441Z,3.60
2023-02-26T02:17:24.654Z,3.70
2023-02-26T02:20:41.430Z,3.80
2023-02-26T02:23:16.866Z,3.90
2023-02-26T02:26:16.087Z,4.20
2023-02-26T02:28:59.043Z,4.60
2023-02-26T02:31:32.892Z,4.70
2023-02-26T02:34:05.931Z,4.80
2023-02-26T02:36:42.222Z,5.20
2023-02-26T02:39:15.029Z,5.00
2023-02-26T02:41:48.742Z,5.40
2023-02-26T02:44:21.068Z,5.40
2023-02-26T02:46:53.005Z,5.10
2023-02-26T02:49:28.053Z,5.00
2023-02-26T02:52:00.167Z,4.70
2023-02-26T02:54:36.692Z,4.50
2023-02-26T02:57:10.286Z,4.40
2023-02-26T02:59:43.974Z,4.30
2023-02-26T03:02:18.592Z,4.40
2023-02-26T03:04:47.169Z,4.40
2023-02-26T03:07:15.866Z,4.30
2023-02-26T03:09:44.809Z,4.30
2023-02-26T03:12:13.681Z,4.20
2023-02-26T03:14:43.499Z,4.20
2023-02-26T03:17:25.361Z,4.20
2023-02-26T03:20:06.607Z,4.10
2023-02-26T03:22:41.867Z,4.10
2023-02-26T03:25:17.196Z,4.10
2023-02-26T03:27:50.652Z,4.10
2023-02-26T03:30:23.065Z,4.10
2023-02-26T03:33:01.953Z,4.00
2023-02-26T03:35:37.098Z,4.00
2023-02-26T03:38:08.621Z,4.00
2023-02-26T03:40:44.989Z,3.90
2023-02-26T03:43:18.164Z,3.90
2023-02-26T03:45:49.912Z,3.90
2023-02-26T03:48:23.996Z,3.80
2023-02-26T03:50:54.994Z,3.70
2023-02-26T03:53:26.607Z,3.80
2023-02-26T03:56:00.611Z,3.90
2023-02-26T03:58:29.095Z,4.00
2023-02-26T04:01:03.187Z,4.10
2023-02-26T04:03:40.091Z,4.80
2023-02-26T04:06:09.113Z,4.70
2023-02-26T04:08:37.838Z,4.50
2023-02-26T04:11:10.116Z,4.40
2023-02-26T04:13:39.106Z,4.00
2023-02-26T04:16:08.096Z,4.00
2023-02-26T04:18:38.104Z,4.00
2023-02-26T04:21:06.773Z,4.00
2023-02-26T04:23:35.294Z,4.10
2023-02-26T04:26:03.649Z,4.20
2023-02-26T04:28:31.992Z,4.40
2023-02-26T04:31:00.939Z,4.40
2023-02-26T04:33:29.501Z,4.30
2023-02-26T04:35:59.400Z,4.30
2023-02-26T04:38:27.881Z,4.30
2023-02-26T04:40:56.574Z,4.30
2023-02-26T04:43:25.448Z,4.30
2023-02-26T04:45:53.912Z,4.30
2023-02-26T04:48:22.444Z,4.30
2023-02-26T04:50:50.820Z,4.20
2023-02-26T04:53:21.019Z,4.20
2023-02-26T04:55:52.223Z,4.10
2023-02-26T04:58:21.045Z,4.20
2023-02-26T05:00:50.772Z,4.10
2023-02-26T05:03:19.692Z,4.00
2023-02-26T05:05:48.489Z,4.00
2023-02-26T05:08:16.992Z,4.00
2023-02-26T05:10:47.342Z,4.10
2023-02-26T05:13:15.852Z,4.10
2023-02-26T05:15:44.550Z,4.00
2023-02-26T05:18:13.156Z,4.00
2023-02-26T05:20:41.437Z,4.00
2023-02-26T05:23:10.291Z,4.10
2023-02-26T05:25:38.785Z,4.20
2023-02-26T05:28:08.364Z,4.20
2023-02-26T05:30:36.864Z,4.30
2023-02-26T05:33:05.635Z,4.10
2023-02-26T05:35:34.523Z,4.20
2023-02-26T05:38:02.922Z,4.10
2023-02-26T05:40:31.278Z,4.10
2023-02-26T05:42:59.779Z,4.10
2023-02-26T05:45:29.539Z,4.30
2023-02-26T05:47:58.096Z,4.20
2023-02-26T05:50:26.855Z,4.30
2023-02-26T05:52:55.303Z,4.30
2023-02-26T05:55:24.060Z,4.40
2023-02-26T05:57:52.543Z,4.20
2023-02-26T06:00:21.403Z,4.20
2023-02-26T06:02:51.326Z,4.40
2023-02-26T06:05:19.881Z,4.30
2023-02-26T06:07:48.412Z,4.40
2023-02-26T06:10:16.959Z,4.40
2023-02-26T06:12:45.830Z,4.30
2023-02-26T06:15:14.344Z,4.60
2023-02-26T06:17:42.612Z,4.50
2023-02-26T06:20:13.713Z,4.50
2023-02-26T06:22:42.182Z,4.40
2023-02-26T06:25:11.110Z,4.40
2023-02-26T06:27:39.583Z,4.40
2023-02-26T06:30:08.915Z,4.50
2023-02-26T06:32:37.467Z,4.40
2023-02-26T06:35:06.287Z,4.80
2023-02-26T06:37:36.045Z,4.80
2023-02-26T06:40:04.725Z,4.80
2023-02-26T06:42:33.482Z,4.80
2023-02-26T06:45:01.866Z,4.50
2023-02-26T06:47:30.314Z,4.40
2023-02-26T06:49:58.728Z,4.50
2023-02-26T06:52:27.250Z,4.40
2023-02-26T06:54:57.376Z,4.40
2023-02-26T06:57:25.922Z,4.30
2023-02-26T06:59:54.460Z,4.50
2023-02-26T07:02:24.482Z,4.50
2023-02-26T07:04:53.031Z,4.50
2023-02-26T07:07:21.696Z,4.70
2023-02-26T07:09:50.340Z,4.60
2023-02-26T07:12:19.841Z,4.50
2023-02-26T07:14:48.295Z,4.60
2023-02-26T07:17:20.497Z,4.80
2023-02-26T07:19:49.633Z,5.00
2023-02-26T07:22:19.793Z,4.90
2023-02-26T07:24:51.338Z,4.60
2023-02-26T07:27:21.192Z,4.80
2023-02-26T07:29:49.605Z,4.70
2023-02-26T07:32:18.060Z,4.70
2023-02-26T07:34:46.829Z,4.70
2023-02-26T07:37:15.457Z,4.90
2023-02-26T07:39:44.057Z,4.70
2023-02-26T07:42:12.484Z,4.70
2023-02-26T07:44:42.156Z,4.70
2023-02-26T07:47:10.883Z,4.80
2023-02-26T07:49:39.302Z,4.90
2023-02-26T07:52:08.200Z,4.70
2023-02-26T07:54:36.622Z,4.70
2023-02-26T07:57:05.698Z,4.90
2023-02-26T07:59:34.114Z,4.90
2023-02-26T08:02:03.837Z,4.80
2023-02-26T08:04:33.091Z,4.90
2023-02-26T08:07:02.143Z,4.90
2023-02-26T08:09:30.666Z,4.90
2023-02-26T08:11:59.199Z,4.70
2023-02-26T08:14:27.934Z,4.70
2023-02-26T08:16:56.434Z,4.70
2023-02-26T08:19:26.233Z,4.70
2023-02-26T08:21:55.453Z,4.70
2023-02-26T08:24:23.852Z,4.80
2023-02-26T08:26:52.245Z,4.70
2023-02-26T08:29:20.892Z,4.70
2023-02-26T08:31:49.379Z,4.70
2023-02-26T08:34:17.954Z,4.70
2023-02-26T08:36:47.596Z,4.70
2023-02-26T08:39:16.131Z,4.70
2023-02-26T08:41:44.556Z,4.70
2023-02-26T08:44:13.329Z,4.70
2023-02-26T08:46:41.857Z,4.70
2023-02-26T08:49:10.402Z,4.70
2023-02-26T08:51:38.795Z,4.80
2023-02-26T08:54:09.918Z,4.90
2023-02-26T08:56:38.486Z,4.90
2023-02-26T08:59:07.014Z,4.90
2023-02-26T09:01:35.500Z,4.90
2023-02-26T09:04:04.039Z,4.90
2023-02-26T09:06:32.687Z,5.00
2023-02-26T09:09:01.132Z,5.20
2023-02-26T09:11:32.503Z,5.10
2023-02-26T09:14:02.365Z,5.10
2023-02-26T09:16:31.979Z,5.20
2023-02-26T09:19:00.487Z,5.20
2023-02-26T09:21:28.994Z,5.30
2023-02-26T09:23:57.844Z,5.40
2023-02-26T09:26:26.671Z,5.40
2023-02-26T09:28:56.478Z,5.50
2023-02-26T09:31:25.011Z,5.50
2023-02-26T09:33:53.747Z,5.60
2023-02-26T09:36:22.142Z,5.60
2023-02-26T09:38:50.600Z,5.70
2023-02-26T09:41:23.130Z,5.70
2023-02-26T09:44:15.517Z,5.80
2023-02-26T09:46:53.053Z,5.80
2023-02-26T09:49:29.646Z,5.80
2023-02-26T09:52:03.416Z,5.60
2023-02-26T09:54:36.811Z,5.70
2023-02-26T09:57:07.410Z,5.80
2023-02-26T09:59:37.036Z,5.70
2023-02-26T10:02:13.982Z,5.70
2023-02-26T10:04:53.407Z,5.70
2023-02-26T10:07:34.210Z,5.70
2023-02-26T10:10:12.705Z,6.00
2023-02-26T10:12:43.665Z,5.90
2023-02-26T10:15:16.542Z,5.90
2023-02-26T10:18:03.026Z,6.00
2023-02-26T10:20:36.818Z,6.00
2023-02-26T10:23:09.859Z,6.10
2023-02-26T10:25:42.605Z,6.00
2023-02-26T10:28:29.666Z,6.30
2023-02-26T10:31:03.623Z,6.10
2023-02-26T10:33:40.420Z,6.10
2023-02-26T10:36:17.715Z,6.20
2023-02-26T10:38:51.121Z,6.50
2023-02-26T10:41:25.079Z,6.20
2023-02-26T10:44:01.989Z,6.40
2023-02-26T10:46:50.633Z,6.60
2023-02-26T10:49:36.669Z,6.40
2023-02-26T10:52:14.143Z,6.60
2023-02-26T10:54:51.011Z,6.40
2023-02-26T10:57:25.445Z,6.30
2023-02-26T10:59:53.894Z,6.40
2023-02-26T11:02:38.977Z,6.40
2023-02-26T11:05:15.193Z,6.40
2023-02-26T11:07:44.540Z,6.70
2023-02-26T11:10:19.087Z,6.60
2023-02-26T11:12:47.918Z,6.40
2023-02-26T11:15:18.774Z,6.50
2023-02-26T11:17:50.311Z,6.50
2023-02-26T11:20:25.363Z,6.70
2023-02-26T11:22:57.527Z,6.90
2023-02-26T11:25:28.523Z,6.80
2023-02-26T11:28:01.604Z,6.80
2023-02-26T11:30:33.734Z,7.00
2023-02-26T11:33:14.913Z,6.70
2023-02-26T11:35:43.600Z,6.70
2023-02-26T11:38:19.593Z,6.90
2023-02-26T11:40:50.093Z,6.80
2023-02-26T11:43:21.171Z,7.00
2023-02-26T11:45:53.616Z,7.10
2023-02-26T11:48:26.908Z,6.80
2023-02-26T11:50:59.066Z,7.00
2023-02-26T11:53:32.299Z,6.70
2023-02-26T11:56:03.184Z,6.70
2023-02-26T11:58:37.150Z,6.90
2023-02-26T12:01:08.058Z,7.00
2023-02-26T12:03:41.535Z,6.80
2023-02-26T12:06:17.714Z,6.90
2023-02-26T12:08:46.589Z,7.00
2023-02-26T12:11:49.368Z,7.10
2023-02-26T12:14:40.201Z,6.90
2023-02-26T12:17:20.255Z,6.90
2023-02-26T12:19:55.909Z,7.00
2023-02-26T12:22:43.529Z,6.90
2023-02-26T12:25:34.035Z,7.10
2023-02-26T12:28:30.395Z,7.00
2023-02-26T12:31:32.273Z,7.00
2023-02-26T12:34:15.618Z,7.00
2023-02-26T12:37:01.794Z,7.10
2023-02-26T12:39:45.402Z,7.20
2023-02-26T12:42:27.977Z,7.00
2023-02-26T12:45:22.097Z,7.10
2023-02-26T12:48:04.530Z,7.10
2023-02-26T12:50:43.744Z,7.00
2023-02-26T12:53:35.096Z,7.00
2023-02-26T12:56:28.430Z,7.10
2023-02-26T12:59:08.657Z,7.20
2023-02-26T13:02:00.972Z,7.20
2023-02-26T13:04:57.639Z,7.20
2023-02-26T13:07:58.713Z,7.40
2023-02-26T13:10:38.044Z,7.30
2023-02-26T13:13:31.257Z,7.20
2023-02-26T13:16:09.941Z,7.40
2023-02-26T13:18:48.025Z,7.20
2023-02-26T13:21:20.735Z,7.20
2023-02-26T13:23:53.111Z,7.20
2023-02-26T13:26:24.542Z,7.40
2023-02-26T13:28:58.367Z,7.40
2023-02-26T13:31:31.799Z,7.50
2023-02-26T13:34:03.801Z,7.50
2023-02-26T13:36:35.230Z,7.40
2023-02-26T13:39:21.672Z,7.40
2023-02-26T13:42:00.230Z,7.50
2023-02-26T13:44:37.364Z,7.20
2023-02-26T13:47:24.230Z,7.30
2023-02-26T13:50:00.883Z,7.20
2023-02-26T13:52:31.161Z,7.30
2023-02-26T13:54:59.691Z,7.10
2023-02-26T13:57:48.821Z,7.20
2023-02-26T14:00:28.222Z,7.10
2023-02-26T14:02:59.263Z,7.30
2023-02-26T14:05:54.120Z,7.40
2023-02-26T14:08:44.308Z,7.50
2023-02-26T14:11:47.159Z,7.60
2023-02-26T14:14:25.143Z,7.60
2023-02-26T14:17:18.710Z,7.90
2023-02-26T14:20:21.187Z,7.80
2023-02-26T14:22:52.651Z,7.60
2023-02-26T14:25:30.831Z,7.50
2023-02-26T14:28:34.562Z,7.70
2023-02-26T14:31:22.280Z,7.60
2023-02-26T14:34:10.984Z,7.80
2023-02-26T14:36:45.646Z,7.50
2023-02-26T14:39:40.575Z,7.60
2023-02-26T14:42:13.795Z,7.60
2023-02-26T14:44:45.137Z,7.60
2023-02-26T14:47:15.425Z,7.50
2023-02-26T14:49:46.707Z,7.40
2023-02-26T14:52:49.868Z,7.60
2023-02-26T14:55:41.523Z,7.60
2023-02-26T14:58:34.525Z,7.50
2023-02-26T15:01:21.314Z,7.50
2023-02-26T15:04:14.963Z,7.80
2023-02-26T15:06:59.052Z,7.60
2023-02-26T15:09:38.124Z,7.40
2023-02-26T15:12:17.440Z,7.30
2023-02-26T15:15:21.614Z,7.60
2023-02-26T15:18:02.424Z,7.40
2023-02-26T15:20:42.628Z,7.30
2023-02-26T15:23:35.444Z,7.60
2023-02-26T15:26:05.240Z,7.40
2023-02-26T15:28:37.853Z,7.40
2023-02-26T15:31:07.811Z,7.50
2023-02-26T15:33:37.708Z,7.50
2023-02-26T15:36:11.199Z,7.50
2023-02-26T15:38:44.904Z,7.20
2023-02-26T15:41:14.036Z,7.30
2023-02-26T15:43:50.429Z,7.50
2023-02-26T15:46:21.096Z,7.40
2023-02-26T15:48:49.754Z,7.40
2023-02-26T15:51:21.355Z,7.60
2023-02-26T15:53:52.212Z,7.80
2023-02-26T15:56:25.199Z,8.20
2023-02-26T15:58:57.744Z,8.00
2023-02-26T16:01:28.173Z,7.80
2023-02-26T16:04:00.095Z,7.90
2023-02-26T16:06:32.919Z,7.90
2023-02-26T16:09:01.677Z,7.70
2023-02-26T16:11:34.365Z,7.60
2023-02-26T16:14:04.680Z,7.60
2023-02-26T16:16:41.208Z,7.40
2023-02-26T16:19:14.983Z,7.70
2023-02-26T16:21:45.578Z,7.70
2023-02-26T16:24:17.542Z,7.60
2023-02-26T16:26:50.510Z,7.50
2023-02-26T16:29:21.542Z,7.40
2023-02-26T16:31:54.200Z,7.40
2023-02-26T16:34:31.691Z,7.60
2023-02-26T16:37:12.594Z,7.80
2023-02-26T16:39:46.288Z,7.70
2023-02-26T16:42:21.100Z,7.80
2023-02-26T16:44:53.454Z,7.40
2023-02-26T16:47:23.294Z,7.10
2023-02-26T16:49:53.544Z,7.30
2023-02-26T16:52:26.924Z,7.20
2023-02-26T16:55:00.002Z,7.30
2023-02-26T16:57:35.875Z,7.30
2023-02-26T17:00:10.099Z,7.30
2023-02-26T17:02:41.844Z,7.20
2023-02-26T17:05:22.637Z,7.30
2023-02-26T17:07:58.303Z,7.40
2023-02-26T17:10:34.305Z,7.20
2023-02-26T17:13:07.734Z,7.40
2023-02-26T17:15:40.797Z,7.20
2023-02-26T17:18:09.676Z,7.30
2023-02-26T17:20:39.174Z,7.10
2023-02-26T17:23:10.272Z,7.30
2023-02-26T17:25:41.436Z,7.20
2023-02-26T17:28:11.958Z,7.00
2023-02-26T17:30:40.468Z,7.10
2023-02-26T17:33:12.883Z,7.10
2023-02-26T17:35:41.461Z,7.10
2023-02-26T17:38:13.531Z,7.20
2023-02-26T17:40:43.133Z,7.30
2023-02-26T17:43:11.733Z,7.30
2023-02-26T17:45:41.802Z,7.10
2023-02-26T17:48:12.226Z,7.00
2023-02-26T17:50:47.054Z,7.10
2023-02-26T17:53:17.960Z,7.00
2023-02-26T17:55:46.882Z,7.20
2023-02-26T17:58:18.262Z,7.00
2023-02-26T18:00:49.825Z,7.10
2023-02-26T18:03:18.994Z,7.10
2023-02-26T18:05:47.582Z,7.20
2023-02-26T18:08:22.704Z,7.20
2023-02-26T18:10:51.061Z,7.10
2023-02-26T18:13:20.197Z,7.20
2023-02-26T18:15:48.925Z,7.40
2023-02-26T18:18:18.791Z,7.20
2023-02-26T18:20:47.463Z,7.10
2023-02-26T18:23:17.274Z,7.10
2023-02-26T18:25:47.558Z,7.30
2023-02-26T18:28:20.438Z,7.20
2023-02-26T18:30:49.971Z,7.10
2023-02-26T18:33:18.968Z,7.10
2023-02-26T18:35:50.174Z,7.20
2023-02-26T18:38:22.355Z,7.30
2023-02-26T18:40:52.463Z,7.50
2023-02-26T18:43:21.275Z,7.20
2023-02-26T18:45:52.271Z,7.30
2023-02-26T18:48:21.781Z,7.30
2023-02-26T18:50:50.485Z,7.10
2023-02-26T18:53:23.582Z,7.10
2023-02-26T18:55:53.499Z,7.10
2023-02-26T18:58:22.202Z,6.90
2023-02-26T19:00:51.084Z,6.80
2023-02-26T19:03:19.746Z,7.00
2023-02-26T19:05:56.093Z,6.80
2023-02-26T19:08:25.900Z,6.90
2023-02-26T19:10:54.309Z,6.80
2023-02-26T19:13:23.961Z,6.90
2023-02-26T19:15:52.645Z,6.80
2023-02-26T19:18:21.365Z,7.00
2023-02-26T19:20:49.884Z,7.10
2023-02-26T19:23:18.664Z,7.10
2023-02-26T19:25:48.416Z,6.90
2023-02-26T19:28:16.886Z,7.00
2023-02-26T19:30:45.344Z,7.10
2023-02-26T19:33:14.274Z,6.80
2023-02-26T19:35:42.680Z,6.90
2023-02-26T19:38:11.594Z,7.10
2023-02-26T19:40:40.213Z,7.00
2023-02-26T19:43:10.112Z,7.00
2023-02-26T19:45:38.566Z,7.00
2023-02-26T19:48:06.905Z,6.90
2023-02-26T19:50:35.488Z,6.80
2023-02-26T19:53:04.593Z,6.70
2023-02-26T19:55:33.057Z,6.60
2023-02-26T19:58:01.608Z,6.60
2023-02-26T20:00:31.242Z,6.50
2023-02-26T20:03:00.337Z,6.40
2023-02-26T20:05:28.812Z,6.40
2023-02-26T20:07:57.544Z,6.40
2023-02-26T20:10:26.854Z,6.20
2023-02-26T20:12:56.144Z,6.30
2023-02-26T20:15:25.177Z,6.10
2023-02-26T20:17:54.960Z,6.10
2023-02-26T20:20:23.600Z,6.10
2023-02-26T20:22:52.073Z,6.00
2023-02-26T20:25:20.821Z,6.10
2023-02-26T20:27:49.500Z,6.00
2023-02-26T20:30:19.118Z,6.00
2023-02-26T20:32:47.762Z,6.00
2023-02-26T20:35:17.599Z,6.10
2023-02-26T20:37:46.309Z,6.00
2023-02-26T20:40:15.147Z,6.00
2023-02-26T20:42:43.851Z,6.00
2023-02-26T20:45:12.921Z,5.90
2023-02-26T20:47:42.077Z,5.80
2023-02-26T20:50:11.479Z,5.80
2023-02-26T20:52:41.739Z,5.90
2023-02-26T20:55:10.856Z,5.70
2023-02-26T20:57:39.480Z,5.60
2023-02-26T21:00:11.346Z,5.60
2023-02-26T21:02:39.951Z,5.60
2023-02-26T21:05:09.562Z,5.60
2023-02-26T21:07:39.431Z,5.60
2023-02-26T21:10:11.302Z,5.60
2023-02-26T21:12:39.786Z,5.60
2023-02-26T21:15:10.414Z,5.50
2023-02-26T21:17:39.395Z,5.60
2023-02-26T21:20:08.874Z,5.50
2023-02-26T21:22:37.801Z,5.50
2023-02-26T21:25:09.799Z,5.50
2023-02-26T21:27:38.186Z,5.40
2023-02-26T21:30:08.092Z,5.40
2023-02-26T21:32:36.952Z,5.50
2023-02-26T21:35:05.814Z,5.50
2023-02-26T21:37:34.475Z,5.40
2023-02-26T21:40:06.442Z,5.40
2023-02-26T21:42:36.176Z,5.40
2023-02-26T21:45:04.935Z,5.40
2023-02-26T21:47:33.428Z,5.40
2023-02-26T21:50:01.963Z,5.30
2023-02-26T21:52:30.371Z,5.30
2023-02-26T21:54:58.881Z,5.20
2023-02-26T21:57:27.973Z,5.20
2023-02-26T21:59:57.927Z,5.30
2023-02-26T22:02:26.379Z,5.30
2023-02-26T22:04:55.195Z,5.50
2023-02-26T22:07:23.705Z,5.30
2023-02-26T22:09:52.284Z,5.30
2023-02-26T22:12:20.674Z,5.30
2023-02-26T22:14:49.592Z,5.30
2023-02-26T22:17:19.381Z,5.20
2023-02-26T22:19:47.823Z,5.30
2023-02-26T22:22:17.054Z,5.30
2023-02-26T22:24:45.541Z,5.20
2023-02-26T22:27:14.043Z,5.10
2023-02-26T22:29:42.690Z,5.10
2023-02-26T22:32:11.184Z,4.90
2023-02-26T22:34:40.835Z,4.90
2023-02-26T22:37:09.328Z,5.00
2023-02-26T22:39:37.864Z,4.90
2023-02-26T22:42:06.356Z,4.90
2023-02-26T22:44:35.194Z,4.90
2023-02-26T22:47:03.732Z,4.80
2023-02-26T22:49:32.151Z,4.70
2023-02-26T22:52:01.752Z,4.80
2023-02-26T22:54:30.606Z,4.70
2023-02-26T22:56:59.121Z,4.60
2023-02-26T22:59:27.692Z,4.50
2023-02-26T23:01:56.314Z,4.50
2023-02-26T23:04:24.801Z,4.50
2023-02-26T23:06:53.207Z,4.50
2023-02-26T23:09:22.973Z,4.50
2023-02-26T23:11:51.477Z,4.50
2023-02-26T23:14:20.509Z,4.40
2023-02-26T23:16:49.423Z,4.40
2023-02-26T23:19:17.901Z,4.30
2023-02-26T23:21:46.371Z,4.30
2023-02-26T23:24:15.190Z,4.40
2023-02-26T23:26:45.204Z,4.30
2023-02-26T23:29:13.714Z,4.20
2023-02-26T23:31:42.765Z,4.20
2023-02-26T23:34:11.565Z,4.20
2023-02-26T23:36:40.102Z,4.10
2023-02-26T23:39:08.711Z,4.10
2023-02-26T23:41:37.307Z,4.10
2023-02-26T23:44:07.041Z,4.10
2023-02-26T23:46:35.541Z,4.00
2023-02-26T23:49:04.091Z,3.90
2023-02-26T23:51:32.618Z,4.00
2023-02-26T23:54:00.981Z,4.00
2023-02-26T23:56:29.440Z,4.00
2023-02-26T23:58:58.385Z,3.90
